Alaska Titan — WDE4789 — position and weather

sailwx.info

Track history (hours):
 
Tides and Currents Weather Stations Pressure Air Temp Water Temp Dewpoint Dewpoint Depression Visibility Wind Speed Wind Dir Waves Ship Positions

Alaska Titan

Owner: WESTERN TOWBOAT CO, Seattle, WA. More information available from US FCC via Universal Licensing System and Coast Guard Vessel Documentation Center.

Last reported at 2015-May-26 15:04 UTC. Time now 2015-May-26 15:46 UTC.
Position N 50°30' W 126°24'.

Length 40 m.

Type: Tow > 200 m length. MMSI: 367357890.

Date/timePositionNaut miles runAvg speedWind from/ knotsBaromVisibWave heightAir tempDewpointWater temp
2015-May-26 15:04N 50°30' W 126°24'5 9.7
2015-May-26 14:31N 50°30' W 126°32'9 8.4
2015-May-26 13:28N 50°36' W 126°43'10 9.1
2015-May-26 12:19N 50°42' W 126°56'8 9.1
2015-May-26 11:29N 50°45' W 127°07'9 9.8
2015-May-26 10:33N 50°51' W 127°18'9 8.9
2015-May-26 09:33N 50°57' W 127°29'8 8.1
2015-May-26 08:32N 51°02' W 127°38'9 9.2
2015-May-26 07:33N 51°08' W 127°49'11 9.8
2015-May-26 06:27N 51°18' W 127°56'  
2015-May-23 18:00N 58°12' W 137°06'56 9.4 290 / 151021.0 1.1 16.1
2015-May-23 12:00N 58°30' W 138°48'56 9.3 310 / 101022.0 16.0
2015-May-23 06:00N 58°48' W 140°30'116 9.6 270 / 151022.0 5.4 0.516.1
2015-May-22 18:00N 59°30' W 144°00'60 9.9 270 / 151022.5 5.4 0.516.1
2015-May-22 12:00N 59°54' W 145°48'   230 / 51022.2
2015-May-19 18:00N 59°30' W 140°00'7612.6 280 / 151024.010.8 0.514.4
2015-May-19 12:00N 59°12' W 142°24'50 8.3 270 / 101023.0 15.0
2015-May-19 06:00N 58°54' W 140°54'92 7.7 290 / 171023.010.8 1.014.4
2015-May-18 18:00N 58°24' W 138°06'48 8.0 320 / 181022.5 5.4 1.015.0
2015-May-18 12:00N 58°06' W 136°42'1610.0 300 / 51021.1 1.0
2015-May-18 10:24N 58°17' W 136°20'9 9.4
2015-May-18 09:29N 58°15' W 136°04'8 8.5
2015-May-18 08:32N 58°18' W 135°50'8 8.2
2015-May-18 07:34N 58°15' W 135°35'  
Track history (hours):
 
Tides and Currents Weather Stations Pressure Air Temp Water Temp Dewpoint Dewpoint Depression Visibility Wind Speed Wind Dir Waves Ship Positions

Alaska Titan

Owner: WESTERN TOWBOAT CO, Seattle, WA. More information available from US FCC via Universal Licensing System and Coast Guard Vessel Documentation Center.

Last reported at 2015-May-26 15:04 UTC. Time now 2015-May-26 15:46 UTC.
Position N 50°30' W 126°24'.

Length 40 m.

Type: Tow > 200 m length. MMSI: 367357890.

Date/timePositionNaut miles runAvg speedWind from/ knotsBaromVisibWave heightAir tempDewpointWater temp
2015-May-26 15:04N 50°30' W 126°24'5 9.7
2015-May-26 14:31N 50°30' W 126°32'9 8.4
2015-May-26 13:28N 50°36' W 126°43'10 9.1
2015-May-26 12:19N 50°42' W 126°56'8 9.1
2015-May-26 11:29N 50°45' W 127°07'9 9.8
2015-May-26 10:33N 50°51' W 127°18'9 8.9
2015-May-26 09:33N 50°57' W 127°29'8 8.1
2015-May-26 08:32N 51°02' W 127°38'9 9.2
2015-May-26 07:33N 51°08' W 127°49'11 9.8
2015-May-26 06:27N 51°18' W 127°56'  
2015-May-23 18:00N 58°12' W 137°06'56 9.4 290 / 151021.0 1.1 16.1
2015-May-23 12:00N 58°30' W 138°48'56 9.3 310 / 101022.0 16.0
2015-May-23 06:00N 58°48' W 140°30'116 9.6 270 / 151022.0 5.4 0.516.1
2015-May-22 18:00N 59°30' W 144°00'60 9.9 270 / 151022.5 5.4 0.516.1
2015-May-22 12:00N 59°54' W 145°48'   230 / 51022.2
2015-May-19 18:00N 59°30' W 140°00'7612.6 280 / 151024.010.8 0.514.4
2015-May-19 12:00N 59°12' W 142°24'50 8.3 270 / 101023.0 15.0
2015-May-19 06:00N 58°54' W 140°54'92 7.7 290 / 171023.010.8 1.014.4
2015-May-18 18:00N 58°24' W 138°06'48 8.0 320 / 181022.5 5.4 1.015.0
2015-May-18 12:00N 58°06' W 136°42'1610.0 300 / 51021.1 1.0
2015-May-18 10:24N 58°17' W 136°20'9 9.4
2015-May-18 09:29N 58°15' W 136°04'8 8.5
2015-May-18 08:32N 58°18' W 135°50'8 8.2
2015-May-18 07:34N 58°15' W 135°35'  

Dump ship's entire track history